sensor_id;sensor_type;location;lat;lon;timestamp;P1;P2;P0
49462;PMS5003;35357;51.722;0.500;2023-09-12T00:00:21;14;14;
49462;PMS5003;35357;51.722;0.500;2023-09-12T00:02:49;13;12;
49462;PMS5003;35357;51.722;0.500;2023-09-12T00:05:16;15;15;
49462;PMS5003;35357;51.722;0.500;2023-09-12T00:07:43;13;12;
49462;PMS5003;35357;51.722;0.500;2023-09-12T00:10:10;14;14;
49462;PMS5003;35357;51.722;0.500;2023-09-12T00:12:38;14;13;
49462;PMS5003;35357;51.722;0.500;2023-09-12T00:15:05;16;15;
49462;PMS5003;35357;51.722;0.500;2023-09-12T00:17:32;15;15;
49462;PMS5003;35357;51.722;0.500;2023-09-12T00:19:59;14;14;
49462;PMS5003;35357;51.722;0.500;2023-09-12T00:22:25;15;15;
49462;PMS5003;35357;51.722;0.500;2023-09-12T00:24:52;15;15;
49462;PMS5003;35357;51.722;0.500;2023-09-12T00:27:19;14;13;
49462;PMS5003;35357;51.722;0.500;2023-09-12T00:29:46;12;12;
49462;PMS5003;35357;51.722;0.500;2023-09-12T00:32:13;15;14;
49462;PMS5003;35357;51.722;0.500;2023-09-12T00:34:40;13;13;
49462;PMS5003;35357;51.722;0.500;2023-09-12T00:37:06;12;12;
49462;PMS5003;35357;51.722;0.500;2023-09-12T00:39:34;14;14;
49462;PMS5003;35357;51.722;0.500;2023-09-12T00:42:00;11;11;
49462;PMS5003;35357;51.722;0.500;2023-09-12T00:44:27;12;12;
49462;PMS5003;35357;51.722;0.500;2023-09-12T00:46:54;11;11;
49462;PMS5003;35357;51.722;0.500;2023-09-12T00:49:21;13;12;
49462;PMS5003;35357;51.722;0.500;2023-09-12T00:51:50;15;14;
49462;PMS5003;35357;51.722;0.500;2023-09-12T00:54:17;11;11;
49462;PMS5003;35357;51.722;0.500;2023-09-12T00:56:44;13;13;
49462;PMS5003;35357;51.722;0.500;2023-09-12T00:59:11;9;9;
49462;PMS5003;35357;51.722;0.500;2023-09-12T01:01:39;12;11;
49462;PMS5003;35357;51.722;0.500;2023-09-12T01:04:06;11;11;
49462;PMS5003;35357;51.722;0.500;2023-09-12T01:06:34;12;12;
49462;PMS5003;35357;51.722;0.500;2023-09-12T01:09:01;10;10;
49462;PMS5003;35357;51.722;0.500;2023-09-12T01:11:29;11;11;
49462;PMS5003;35357;51.722;0.500;2023-09-12T01:13:57;12;11;
49462;PMS5003;35357;51.722;0.500;2023-09-12T01:16:24;12;11;
49462;PMS5003;35357;51.722;0.500;2023-09-12T01:18:51;9;8;
49462;PMS5003;35357;51.722;0.500;2023-09-12T01:21:26;9;8;
49462;PMS5003;35357;51.722;0.500;2023-09-12T01:24:07;9;9;
49462;PMS5003;35357;51.722;0.500;2023-09-12T01:26:49;9;9;
49462;PMS5003;35357;51.722;0.500;2023-09-12T01:29:27;9;9;
49462;PMS5003;35357;51.722;0.500;2023-09-12T01:31:54;8;8;
49462;PMS5003;35357;51.722;0.500;2023-09-12T01:34:22;11;10;
49462;PMS5003;35357;51.722;0.500;2023-09-12T01:36:49;9;9;
49462;PMS5003;35357;51.722;0.500;2023-09-12T01:39:16;7;7;
49462;PMS5003;35357;51.722;0.500;2023-09-12T01:41:43;9;9;
49462;PMS5003;35357;51.722;0.500;2023-09-12T01:44:14;9;9;
49462;PMS5003;35357;51.722;0.500;2023-09-12T01:46:41;9;9;
49462;PMS5003;35357;51.722;0.500;2023-09-12T01:49:09;7;7;
49462;PMS5003;35357;51.722;0.500;2023-09-12T01:51:38;8;8;
49462;PMS5003;35357;51.722;0.500;2023-09-12T01:54:06;8;8;
49462;PMS5003;35357;51.722;0.500;2023-09-12T01:56:33;10;10;
49462;PMS5003;35357;51.722;0.500;2023-09-12T01:59:02;10;10;
49462;PMS5003;35357;51.722;0.500;2023-09-12T02:01:29;8;8;
49462;PMS5003;35357;51.722;0.500;2023-09-12T02:03:56;10;9;
49462;PMS5003;35357;51.722;0.500;2023-09-12T02:06:24;10;10;
49462;PMS5003;35357;51.722;0.500;2023-09-12T02:08:51;10;9;
49462;PMS5003;35357;51.722;0.500;2023-09-12T02:11:18;11;10;
49462;PMS5003;35357;51.722;0.500;2023-09-12T02:13:45;8;8;
49462;PMS5003;35357;51.722;0.500;2023-09-12T02:16:12;10;9;
49462;PMS5003;35357;51.722;0.500;2023-09-12T02:18:39;8;8;
49462;PMS5003;35357;51.722;0.500;2023-09-12T02:21:06;9;8;
49462;PMS5003;35357;51.722;0.500;2023-09-12T02:23:33;7;7;
49462;PMS5003;35357;51.722;0.500;2023-09-12T02:25:59;9;9;
49462;PMS5003;35357;51.722;0.500;2023-09-12T02:28:26;9;9;
49462;PMS5003;35357;51.722;0.500;2023-09-12T02:30:53;8;8;
49462;PMS5003;35357;51.722;0.500;2023-09-12T02:33:20;9;9;
49462;PMS5003;35357;51.722;0.500;2023-09-12T02:35:46;8;8;
49462;PMS5003;35357;51.722;0.500;2023-09-12T02:38:13;8;7;
49462;PMS5003;35357;51.722;0.500;2023-09-12T02:40:41;8;7;
49462;PMS5003;35357;51.722;0.500;2023-09-12T02:43:07;8;8;
49462;PMS5003;35357;51.722;0.500;2023-09-12T02:45:34;10;10;
49462;PMS5003;35357;51.722;0.500;2023-09-12T02:48:01;8;8;
49462;PMS5003;35357;51.722;0.500;2023-09-12T02:50:28;10;9;
49462;PMS5003;35357;51.722;0.500;2023-09-12T02:52:55;9;8;
49462;PMS5003;35357;51.722;0.500;2023-09-12T02:55:23;7;7;
49462;PMS5003;35357;51.722;0.500;2023-09-12T02:57:50;9;9;
49462;PMS5003;35357;51.722;0.500;2023-09-12T03:00:18;7;7;
49462;PMS5003;35357;51.722;0.500;2023-09-12T03:02:47;8;8;
49462;PMS5003;35357;51.722;0.500;2023-09-12T03:05:15;7;7;
49462;PMS5003;35357;51.722;0.500;2023-09-12T03:07:42;9;9;
49462;PMS5003;35357;51.722;0.500;2023-09-12T03:10:09;8;8;
49462;PMS5003;35357;51.722;0.500;2023-09-12T03:12:36;8;8;
49462;PMS5003;35357;51.722;0.500;2023-09-12T03:15:03;8;7;
49462;PMS5003;35357;51.722;0.500;2023-09-12T03:17:30;9;8;
49462;PMS5003;35357;51.722;0.500;2023-09-12T03:19:57;9;9;
49462;PMS5003;35357;51.722;0.500;2023-09-12T03:22:24;14;11;
49462;PMS5003;35357;51.722;0.500;2023-09-12T03:24:51;8;8;
49462;PMS5003;35357;51.722;0.500;2023-09-12T03:27:18;11;11;
49462;PMS5003;35357;51.722;0.500;2023-09-12T03:29:46;11;9;
49462;PMS5003;35357;51.722;0.500;2023-09-12T03:32:14;7;7;
49462;PMS5003;35357;51.722;0.500;2023-09-12T03:34:40;10;10;
49462;PMS5003;35357;51.722;0.500;2023-09-12T03:37:07;7;7;
49462;PMS5003;35357;51.722;0.500;2023-09-12T03:39:34;9;9;
49462;PMS5003;35357;51.722;0.500;2023-09-12T03:42:00;8;8;
49462;PMS5003;35357;51.722;0.500;2023-09-12T03:44:27;6;6;
49462;PMS5003;35357;51.722;0.500;2023-09-12T03:46:54;9;8;
49462;PMS5003;35357;51.722;0.500;2023-09-12T03:49:21;8;8;
49462;PMS5003;35357;51.722;0.500;2023-09-12T03:51:48;8;8;
49462;PMS5003;35357;51.722;0.500;2023-09-12T03:54:16;9;9;
49462;PMS5003;35357;51.722;0.500;2023-09-12T03:56:43;7;7;
49462;PMS5003;35357;51.722;0.500;2023-09-12T03:59:09;6;6;
49462;PMS5003;35357;51.722;0.500;2023-09-12T04:01:36;8;8;
49462;PMS5003;35357;51.722;0.500;2023-09-12T04:04:03;7;7;
49462;PMS5003;35357;51.722;0.500;2023-09-12T04:06:30;9;9;
49462;PMS5003;35357;51.722;0.500;2023-09-12T04:08:57;7;6;
49462;PMS5003;35357;51.722;0.500;2023-09-12T04:11:24;7;7;
49462;PMS5003;35357;51.722;0.500;2023-09-12T04:13:50;8;8;
49462;PMS5003;35357;51.722;0.500;2023-09-12T04:16:17;8;7;
49462;PMS5003;35357;51.722;0.500;2023-09-12T04:18:44;7;7;
49462;PMS5003;35357;51.722;0.500;2023-09-12T04:21:11;9;9;
49462;PMS5003;35357;51.722;0.500;2023-09-12T04:23:38;8;8;
49462;PMS5003;35357;51.722;0.500;2023-09-12T04:26:05;7;7;
49462;PMS5003;35357;51.722;0.500;2023-09-12T04:28:32;8;7;
49462;PMS5003;35357;51.722;0.500;2023-09-12T04:31:02;8;8;
49462;PMS5003;35357;51.722;0.500;2023-09-12T04:33:29;6;6;
49462;PMS5003;35357;51.722;0.500;2023-09-12T04:35:57;9;9;
49462;PMS5003;35357;51.722;0.500;2023-09-12T04:38:25;10;9;
49462;PMS5003;35357;51.722;0.500;2023-09-12T04:40:53;8;8;
49462;PMS5003;35357;51.722;0.500;2023-09-12T04:43:21;8;7;
49462;PMS5003;35357;51.722;0.500;2023-09-12T04:45:48;9;9;
49462;PMS5003;35357;51.722;0.500;2023-09-12T04:48:16;8;8;
49462;PMS5003;35357;51.722;0.500;2023-09-12T04:50:43;10;10;
49462;PMS5003;35357;51.722;0.500;2023-09-12T04:53:10;8;8;
49462;PMS5003;35357;51.722;0.500;2023-09-12T04:55:38;9;8;
49462;PMS5003;35357;51.722;0.500;2023-09-12T04:58:05;7;7;
49462;PMS5003;35357;51.722;0.500;2023-09-12T05:00:32;9;9;
49462;PMS5003;35357;51.722;0.500;2023-09-12T05:03:00;8;7;
49462;PMS5003;35357;51.722;0.500;2023-09-12T05:05:28;8;8;
49462;PMS5003;35357;51.722;0.500;2023-09-12T05:07:56;10;10;
49462;PMS5003;35357;51.722;0.500;2023-09-12T05:10:22;9;8;
49462;PMS5003;35357;51.722;0.500;2023-09-12T05:12:50;8;8;
49462;PMS5003;35357;51.722;0.500;2023-09-12T05:15:17;9;8;
49462;PMS5003;35357;51.722;0.500;2023-09-12T05:17:45;9;8;
49462;PMS5003;35357;51.722;0.500;2023-09-12T05:20:12;12;11;
49462;PMS5003;35357;51.722;0.500;2023-09-12T05:22:38;9;9;
49462;PMS5003;35357;51.722;0.500;2023-09-12T05:25:05;8;8;
49462;PMS5003;35357;51.722;0.500;2023-09-12T05:27:33;8;8;
49462;PMS5003;35357;51.722;0.500;2023-09-12T05:30:00;6;6;
49462;PMS5003;35357;51.722;0.500;2023-09-12T05:32:26;11;10;
49462;PMS5003;35357;51.722;0.500;2023-09-12T05:34:53;9;9;
49462;PMS5003;35357;51.722;0.500;2023-09-12T05:37:20;8;8;
49462;PMS5003;35357;51.722;0.500;2023-09-12T05:39:46;9;9;
49462;PMS5003;35357;51.722;0.500;2023-09-12T05:42:13;9;9;
49462;PMS5003;35357;51.722;0.500;2023-09-12T05:44:41;9;9;
49462;PMS5003;35357;51.722;0.500;2023-09-12T05:47:08;10;10;
49462;PMS5003;35357;51.722;0.500;2023-09-12T05:49:34;9;9;
49462;PMS5003;35357;51.722;0.500;2023-09-12T05:52:01;10;10;
49462;PMS5003;35357;51.722;0.500;2023-09-12T05:54:28;9;8;
49462;PMS5003;35357;51.722;0.500;2023-09-12T05:56:54;8;8;
49462;PMS5003;35357;51.722;0.500;2023-09-12T05:59:21;8;8;
49462;PMS5003;35357;51.722;0.500;2023-09-12T06:01:48;10;10;
49462;PMS5003;35357;51.722;0.500;2023-09-12T06:04:15;11;9;
49462;PMS5003;35357;51.722;0.500;2023-09-12T06:06:42;9;9;
49462;PMS5003;35357;51.722;0.500;2023-09-12T06:09:09;9;9;
49462;PMS5003;35357;51.722;0.500;2023-09-12T06:11:36;9;9;
49462;PMS5003;35357;51.722;0.500;2023-09-12T06:14:03;11;11;
49462;PMS5003;35357;51.722;0.500;2023-09-12T06:16:31;8;8;
49462;PMS5003;35357;51.722;0.500;2023-09-12T06:18:57;9;8;
49462;PMS5003;35357;51.722;0.500;2023-09-12T06:21:24;12;11;
49462;PMS5003;35357;51.722;0.500;2023-09-12T06:24:08;8;8;
49462;PMS5003;35357;51.722;0.500;2023-09-12T06:26:36;8;8;
49462;PMS5003;35357;51.722;0.500;2023-09-12T06:29:03;9;9;
49462;PMS5003;35357;51.722;0.500;2023-09-12T06:31:31;9;8;
49462;PMS5003;35357;51.722;0.500;2023-09-12T06:33:58;8;7;
49462;PMS5003;35357;51.722;0.500;2023-09-12T06:36:26;10;10;
49462;PMS5003;35357;51.722;0.500;2023-09-12T06:38:54;9;9;
49462;PMS5003;35357;51.722;0.500;2023-09-12T06:41:22;10;10;
49462;PMS5003;35357;51.722;0.500;2023-09-12T06:43:49;10;9;
49462;PMS5003;35357;51.722;0.500;2023-09-12T06:46:16;7;7;
49462;PMS5003;35357;51.722;0.500;2023-09-12T06:48:44;11;9;
49462;PMS5003;35357;51.722;0.500;2023-09-12T06:51:12;7;7;
49462;PMS5003;35357;51.722;0.500;2023-09-12T06:53:39;9;8;
49462;PMS5003;35357;51.722;0.500;2023-09-12T06:56:06;8;8;
49462;PMS5003;35357;51.722;0.500;2023-09-12T06:58:33;10;9;
49462;PMS5003;35357;51.722;0.500;2023-09-12T07:01:01;8;8;
49462;PMS5003;35357;51.722;0.500;2023-09-12T07:03:28;8;8;
49462;PMS5003;35357;51.722;0.500;2023-09-12T07:05:55;9;9;
49462;PMS5003;35357;51.722;0.500;2023-09-12T07:08:22;9;9;
49462;PMS5003;35357;51.722;0.500;2023-09-12T07:10:49;9;8;
49462;PMS5003;35357;51.722;0.500;2023-09-12T07:13:17;6;6;
49462;PMS5003;35357;51.722;0.500;2023-09-12T07:15:43;9;9;
49462;PMS5003;35357;51.722;0.500;2023-09-12T07:18:10;9;9;
49462;PMS5003;35357;51.722;0.500;2023-09-12T07:20:38;8;8;
49462;PMS5003;35357;51.722;0.500;2023-09-12T07:23:04;6;6;
49462;PMS5003;35357;51.722;0.500;2023-09-12T07:25:35;8;8;
49462;PMS5003;35357;51.722;0.500;2023-09-12T07:28:04;8;8;
49462;PMS5003;35357;51.722;0.500;2023-09-12T07:30:31;10;9;
49462;PMS5003;35357;51.722;0.500;2023-09-12T07:32:58;9;9;
49462;PMS5003;35357;51.722;0.500;2023-09-12T07:35:25;7;6;
49462;PMS5003;35357;51.722;0.500;2023-09-12T07:37:52;8;8;
49462;PMS5003;35357;51.722;0.500;2023-09-12T07:40:19;11;10;
49462;PMS5003;35357;51.722;0.500;2023-09-12T07:42:46;9;9;
49462;PMS5003;35357;51.722;0.500;2023-09-12T07:45:13;8;8;
49462;PMS5003;35357;51.722;0.500;2023-09-12T07:47:39;7;7;
49462;PMS5003;35357;51.722;0.500;2023-09-12T07:50:07;9;9;
49462;PMS5003;35357;51.722;0.500;2023-09-12T07:52:34;8;7;
49462;PMS5003;35357;51.722;0.500;2023-09-12T07:55:01;8;8;
49462;PMS5003;35357;51.722;0.500;2023-09-12T07:57:29;23;22;
49462;PMS5003;35357;51.722;0.500;2023-09-12T07:59:57;9;8;
49462;PMS5003;35357;51.722;0.500;2023-09-12T08:02:24;15;14;
49462;PMS5003;35357;51.722;0.500;2023-09-12T08:04:51;10;8;
49462;PMS5003;35357;51.722;0.500;2023-09-12T08:07:18;9;9;
49462;PMS5003;35357;51.722;0.500;2023-09-12T08:09:49;9;8;
49462;PMS5003;35357;51.722;0.500;2023-09-12T08:12:18;8;7;
49462;PMS5003;35357;51.722;0.500;2023-09-12T08:14:46;9;8;
49462;PMS5003;35357;51.722;0.500;2023-09-12T08:17:13;8;8;
49462;PMS5003;35357;51.722;0.500;2023-09-12T08:19:41;10;10;
49462;PMS5003;35357;51.722;0.500;2023-09-12T08:22:09;8;8;
49462;PMS5003;35357;51.722;0.500;2023-09-12T08:24:37;9;9;
49462;PMS5003;35357;51.722;0.500;2023-09-12T08:27:05;8;8;
49462;PMS5003;35357;51.722;0.500;2023-09-12T08:29:33;7;7;
49462;PMS5003;35357;51.722;0.500;2023-09-12T08:32:01;8;8;
49462;PMS5003;35357;51.722;0.500;2023-09-12T08:34:28;8;7;
49462;PMS5003;35357;51.722;0.500;2023-09-12T08:36:55;7;7;
49462;PMS5003;35357;51.722;0.500;2023-09-12T08:39:23;7;7;
49462;PMS5003;35357;51.722;0.500;2023-09-12T08:41:52;9;9;
49462;PMS5003;35357;51.722;0.500;2023-09-12T08:44:21;6;6;
49462;PMS5003;35357;51.722;0.500;2023-09-12T08:46:48;10;9;
49462;PMS5003;35357;51.722;0.500;2023-09-12T08:49:14;9;9;
49462;PMS5003;35357;51.722;0.500;2023-09-12T08:51:42;8;8;
49462;PMS5003;35357;51.722;0.500;2023-09-12T08:54:08;8;7;
49462;PMS5003;35357;51.722;0.500;2023-09-12T08:56:36;6;6;
49462;PMS5003;35357;51.722;0.500;2023-09-12T08:59:06;8;8;
49462;PMS5003;35357;51.722;0.500;2023-09-12T09:01:35;10;10;
49462;PMS5003;35357;51.722;0.500;2023-09-12T09:04:03;9;8;
49462;PMS5003;35357;51.722;0.500;2023-09-12T09:06:31;7;7;
49462;PMS5003;35357;51.722;0.500;2023-09-12T09:09:00;9;8;
49462;PMS5003;35357;51.722;0.500;2023-09-12T09:11:28;8;8;
49462;PMS5003;35357;51.722;0.500;2023-09-12T09:13:55;9;9;
49462;PMS5003;35357;51.722;0.500;2023-09-12T09:16:22;7;6;
49462;PMS5003;35357;51.722;0.500;2023-09-12T09:18:50;10;10;
49462;PMS5003;35357;51.722;0.500;2023-09-12T09:21:19;8;8;
49462;PMS5003;35357;51.722;0.500;2023-09-12T09:23:47;9;8;
49462;PMS5003;35357;51.722;0.500;2023-09-12T09:26:14;8;8;
49462;PMS5003;35357;51.722;0.500;2023-09-12T09:28:41;7;7;
49462;PMS5003;35357;51.722;0.500;2023-09-12T09:31:10;8;8;
49462;PMS5003;35357;51.722;0.500;2023-09-12T09:33:38;7;7;
49462;PMS5003;35357;51.722;0.500;2023-09-12T09:36:06;8;7;
49462;PMS5003;35357;51.722;0.500;2023-09-12T09:41:59;13;12;
49462;PMS5003;35357;51.722;0.500;2023-09-12T09:44:27;10;10;
49462;PMS5003;35357;51.722;0.500;2023-09-12T09:46:55;6;6;
49462;PMS5003;35357;51.722;0.500;2023-09-12T09:49:25;8;8;
49462;PMS5003;35357;51.722;0.500;2023-09-12T09:51:53;7;7;
49462;PMS5003;35357;51.722;0.500;2023-09-12T09:54:21;10;10;
49462;PMS5003;35357;51.722;0.500;2023-09-12T09:56:53;10;9;
49462;PMS5003;35357;51.722;0.500;2023-09-12T09:59:21;10;10;
49462;PMS5003;35357;51.722;0.500;2023-09-12T10:01:50;11;11;
49462;PMS5003;35357;51.722;0.500;2023-09-12T10:04:22;9;9;
49462;PMS5003;35357;51.722;0.500;2023-09-12T10:06:49;9;8;
49462;PMS5003;35357;51.722;0.500;2023-09-12T10:09:18;7;7;
49462;PMS5003;35357;51.722;0.500;2023-09-12T10:11:51;8;8;
49462;PMS5003;35357;51.722;0.500;2023-09-12T10:14:21;6;6;
49462;PMS5003;35357;51.722;0.500;2023-09-12T10:16:50;10;9;
49462;PMS5003;35357;51.722;0.500;2023-09-12T10:19:23;10;10;
49462;PMS5003;35357;51.722;0.500;2023-09-12T10:21:54;9;9;
49462;PMS5003;35357;51.722;0.500;2023-09-12T10:24:30;11;10;
49462;PMS5003;35357;51.722;0.500;2023-09-12T10:26:59;12;12;
49462;PMS5003;35357;51.722;0.500;2023-09-12T10:29:28;11;10;
49462;PMS5003;35357;51.722;0.500;2023-09-12T10:31:57;11;10;
49462;PMS5003;35357;51.722;0.500;2023-09-12T10:34:26;7;7;
49462;PMS5003;35357;51.722;0.500;2023-09-12T10:36:56;7;7;
49462;PMS5003;35357;51.722;0.500;2023-09-12T10:39:26;5;5;
49462;PMS5003;35357;51.722;0.500;2023-09-12T10:41:54;7;7;
49462;PMS5003;35357;51.722;0.500;2023-09-12T10:44:24;7;7;
49462;PMS5003;35357;51.722;0.500;2023-09-12T10:46:52;9;8;
49462;PMS5003;35357;51.722;0.500;2023-09-12T10:49:20;7;7;
49462;PMS5003;35357;51.722;0.500;2023-09-12T10:51:48;7;7;
49462;PMS5003;35357;51.722;0.500;2023-09-12T10:54:22;6;6;
49462;PMS5003;35357;51.722;0.500;2023-09-12T10:57:01;7;7;
49462;PMS5003;35357;51.722;0.500;2023-09-12T10:59:29;5;5;
49462;PMS5003;35357;51.722;0.500;2023-09-12T11:02:26;7;7;
49462;PMS5003;35357;51.722;0.500;2023-09-12T11:04:54;7;5;
49462;PMS5003;35357;51.722;0.500;2023-09-12T11:07:56;4;4;
49462;PMS5003;35357;51.722;0.500;2023-09-12T11:10:24;8;7;
49462;PMS5003;35357;51.722;0.500;2023-09-12T11:12:52;6;6;
49462;PMS5003;35357;51.722;0.500;2023-09-12T11:15:22;8;8;
49462;PMS5003;35357;51.722;0.500;2023-09-12T11:17:59;10;10;
49462;PMS5003;35357;51.722;0.500;2023-09-12T11:20:48;9;8;
49462;PMS5003;35357;51.722;0.500;2023-09-12T11:23:17;6;6;
49462;PMS5003;35357;51.722;0.500;2023-09-12T11:25:45;4;4;
49462;PMS5003;35357;51.722;0.500;2023-09-12T11:28:13;5;5;
49462;PMS5003;35357;51.722;0.500;2023-09-12T11:30:54;5;5;
49462;PMS5003;35357;51.722;0.500;2023-09-12T11:33:24;5;4;
49462;PMS5003;35357;51.722;0.500;2023-09-12T11:35:52;2;2;
49462;PMS5003;35357;51.722;0.500;2023-09-12T11:38:29;5;4;
49462;PMS5003;35357;51.722;0.500;2023-09-12T11:40:58;3;3;
49462;PMS5003;35357;51.722;0.500;2023-09-12T11:43:26;2;2;
49462;PMS5003;35357;51.722;0.500;2023-09-12T11:45:54;4;4;
49462;PMS5003;35357;51.722;0.500;2023-09-12T11:48:22;3;3;
49462;PMS5003;35357;51.722;0.500;2023-09-12T11:50:51;3;3;
49462;PMS5003;35357;51.722;0.500;2023-09-12T11:53:20;4;4;
49462;PMS5003;35357;51.722;0.500;2023-09-12T11:55:48;4;4;
49462;PMS5003;35357;51.722;0.500;2023-09-12T11:58:17;4;4;
49462;PMS5003;35357;51.722;0.500;2023-09-12T12:00:46;3;3;
49462;PMS5003;35357;51.722;0.500;2023-09-12T12:03:15;3;3;
49462;PMS5003;35357;51.722;0.500;2023-09-12T12:05:43;3;3;
49462;PMS5003;35357;51.722;0.500;2023-09-12T12:08:11;4;4;
49462;PMS5003;35357;51.722;0.500;2023-09-12T12:10:38;3;3;
49462;PMS5003;35357;51.722;0.500;2023-09-12T12:13:05;3;3;
49462;PMS5003;35357;51.722;0.500;2023-09-12T12:15:33;3;3;
49462;PMS5003;35357;51.722;0.500;2023-09-12T12:17:59;3;3;
49462;PMS5003;35357;51.722;0.500;2023-09-12T12:20:26;4;4;
49462;PMS5003;35357;51.722;0.500;2023-09-12T12:22:54;3;3;
49462;PMS5003;35357;51.722;0.500;2023-09-12T12:25:20;6;5;
49462;PMS5003;35357;51.722;0.500;2023-09-12T12:27:47;3;3;
49462;PMS5003;35357;51.722;0.500;2023-09-12T12:30:14;4;4;
49462;PMS5003;35357;51.722;0.500;2023-09-12T12:32:41;3;3;
49462;PMS5003;35357;51.722;0.500;2023-09-12T12:35:09;4;3;
49462;PMS5003;35357;51.722;0.500;2023-09-12T12:37:42;2;2;
49462;PMS5003;35357;51.722;0.500;2023-09-12T12:40:11;3;3;
49462;PMS5003;35357;51.722;0.500;2023-09-12T12:42:40;4;4;
49462;PMS5003;35357;51.722;0.500;2023-09-12T12:45:10;7;6;
49462;PMS5003;35357;51.722;0.500;2023-09-12T12:47:38;4;3;
49462;PMS5003;35357;51.722;0.500;2023-09-12T12:50:07;3;3;
49462;PMS5003;35357;51.722;0.500;2023-09-12T12:52:35;6;6;
49462;PMS5003;35357;51.722;0.500;2023-09-12T12:55:04;3;3;
49462;PMS5003;35357;51.722;0.500;2023-09-12T12:57:32;3;3;
49462;PMS5003;35357;51.722;0.500;2023-09-12T13:00:04;3;3;
49462;PMS5003;35357;51.722;0.500;2023-09-12T13:02:33;3;3;
49462;PMS5003;35357;51.722;0.500;2023-09-12T13:05:00;4;4;
49462;PMS5003;35357;51.722;0.500;2023-09-12T13:07:28;4;4;
49462;PMS5003;35357;51.722;0.500;2023-09-12T13:09:55;3;3;
49462;PMS5003;35357;51.722;0.500;2023-09-12T13:12:21;3;3;
49462;PMS5003;35357;51.722;0.500;2023-09-12T13:14:48;5;5;
49462;PMS5003;35357;51.722;0.500;2023-09-12T13:17:15;3;3;
49462;PMS5003;35357;51.722;0.500;2023-09-12T13:19:41;5;5;
49462;PMS5003;35357;51.722;0.500;2023-09-12T13:22:08;7;6;
49462;PMS5003;35357;51.722;0.500;2023-09-12T13:24:35;4;4;
49462;PMS5003;35357;51.722;0.500;2023-09-12T13:27:02;3;3;
49462;PMS5003;35357;51.722;0.500;2023-09-12T13:29:30;3;3;
49462;PMS5003;35357;51.722;0.500;2023-09-12T13:31:57;5;4;
49462;PMS5003;35357;51.722;0.500;2023-09-12T13:34:24;7;5;
49462;PMS5003;35357;51.722;0.500;2023-09-12T13:36:51;3;3;
49462;PMS5003;35357;51.722;0.500;2023-09-12T13:39:19;4;4;
49462;PMS5003;35357;51.722;0.500;2023-09-12T13:41:45;6;6;
49462;PMS5003;35357;51.722;0.500;2023-09-12T13:44:12;5;5;
49462;PMS5003;35357;51.722;0.500;2023-09-12T13:46:40;5;5;
49462;PMS5003;35357;51.722;0.500;2023-09-12T13:49:07;3;3;
49462;PMS5003;35357;51.722;0.500;2023-09-12T13:51:34;5;4;
49462;PMS5003;35357;51.722;0.500;2023-09-12T13:54:00;5;5;
49462;PMS5003;35357;51.722;0.500;2023-09-12T13:56:28;5;5;
49462;PMS5003;35357;51.722;0.500;2023-09-12T13:58:55;6;6;
49462;PMS5003;35357;51.722;0.500;2023-09-12T14:01:21;5;5;
49462;PMS5003;35357;51.722;0.500;2023-09-12T14:03:48;4;4;
49462;PMS5003;35357;51.722;0.500;2023-09-12T14:06:15;3;3;
49462;PMS5003;35357;51.722;0.500;2023-09-12T14:08:41;4;4;
49462;PMS5003;35357;51.722;0.500;2023-09-12T14:11:08;9;8;
49462;PMS5003;35357;51.722;0.500;2023-09-12T14:13:35;4;4;
49462;PMS5003;35357;51.722;0.500;2023-09-12T14:16:02;4;3;
49462;PMS5003;35357;51.722;0.500;2023-09-12T14:18:30;6;5;
49462;PMS5003;35357;51.722;0.500;2023-09-12T14:20:57;5;5;
49462;PMS5003;35357;51.722;0.500;2023-09-12T14:23:24;4;4;
49462;PMS5003;35357;51.722;0.500;2023-09-12T14:25:51;5;5;
49462;PMS5003;35357;51.722;0.500;2023-09-12T14:28:17;5;5;
49462;PMS5003;35357;51.722;0.500;2023-09-12T14:30:45;4;4;
49462;PMS5003;35357;51.722;0.500;2023-09-12T14:33:12;5;5;
49462;PMS5003;35357;51.722;0.500;2023-09-12T14:35:40;4;4;
49462;PMS5003;35357;51.722;0.500;2023-09-12T14:38:07;8;7;
49462;PMS5003;35357;51.722;0.500;2023-09-12T14:40:34;6;6;
49462;PMS5003;35357;51.722;0.500;2023-09-12T14:43:01;4;4;
49462;PMS5003;35357;51.722;0.500;2023-09-12T14:45:28;7;7;
49462;PMS5003;35357;51.722;0.500;2023-09-12T14:47:56;6;6;
49462;PMS5003;35357;51.722;0.500;2023-09-12T14:50:24;6;6;
49462;PMS5003;35357;51.722;0.500;2023-09-12T14:52:51;6;6;
49462;PMS5003;35357;51.722;0.500;2023-09-12T14:55:18;8;8;
49462;PMS5003;35357;51.722;0.500;2023-09-12T14:57:45;5;5;
49462;PMS5003;35357;51.722;0.500;2023-09-12T15:00:12;7;6;
49462;PMS5003;35357;51.722;0.500;2023-09-12T15:02:39;6;6;
49462;PMS5003;35357;51.722;0.500;2023-09-12T15:05:06;6;6;
49462;PMS5003;35357;51.722;0.500;2023-09-12T15:07:34;5;5;
49462;PMS5003;35357;51.722;0.500;2023-09-12T15:10:00;5;5;
49462;PMS5003;35357;51.722;0.500;2023-09-12T15:12:28;4;4;
49462;PMS5003;35357;51.722;0.500;2023-09-12T15:14:55;5;5;
49462;PMS5003;35357;51.722;0.500;2023-09-12T15:17:21;5;5;
49462;PMS5003;35357;51.722;0.500;2023-09-12T15:19:48;4;4;
49462;PMS5003;35357;51.722;0.500;2023-09-12T15:22:16;5;4;
49462;PMS5003;35357;51.722;0.500;2023-09-12T15:24:42;5;5;
49462;PMS5003;35357;51.722;0.500;2023-09-12T15:27:09;5;5;
49462;PMS5003;35357;51.722;0.500;2023-09-12T15:29:37;4;4;
49462;PMS5003;35357;51.722;0.500;2023-09-12T15:32:05;4;4;
49462;PMS5003;35357;51.722;0.500;2023-09-12T15:34:32;6;5;
49462;PMS5003;35357;51.722;0.500;2023-09-12T15:37:07;4;4;
49462;PMS5003;35357;51.722;0.500;2023-09-12T15:39:36;5;5;
49462;PMS5003;35357;51.722;0.500;2023-09-12T15:42:04;5;5;
49462;PMS5003;35357;51.722;0.500;2023-09-12T15:44:31;3;3;
49462;PMS5003;35357;51.722;0.500;2023-09-12T15:46:59;7;5;
49462;PMS5003;35357;51.722;0.500;2023-09-12T15:49:27;2;2;
49462;PMS5003;35357;51.722;0.500;2023-09-12T15:51:56;4;4;
49462;PMS5003;35357;51.722;0.500;2023-09-12T15:54:23;4;4;
49462;PMS5003;35357;51.722;0.500;2023-09-12T15:56:51;5;4;
49462;PMS5003;35357;51.722;0.500;2023-09-12T15:59:18;4;4;
49462;PMS5003;35357;51.722;0.500;2023-09-12T16:01:45;3;3;
49462;PMS5003;35357;51.722;0.500;2023-09-12T16:04:12;4;4;
49462;PMS5003;35357;51.722;0.500;2023-09-12T16:06:39;4;4;
49462;PMS5003;35357;51.722;0.500;2023-09-12T16:09:05;5;4;
49462;PMS5003;35357;51.722;0.500;2023-09-12T16:11:32;4;4;
49462;PMS5003;35357;51.722;0.500;2023-09-12T16:13:59;6;5;
49462;PMS5003;35357;51.722;0.500;2023-09-12T16:16:26;4;4;
49462;PMS5003;35357;51.722;0.500;2023-09-12T16:18:53;6;4;
49462;PMS5003;35357;51.722;0.500;2023-09-12T16:21:21;4;3;
49462;PMS5003;35357;51.722;0.500;2023-09-12T16:23:47;3;3;
49462;PMS5003;35357;51.722;0.500;2023-09-12T16:26:14;5;4;
49462;PMS5003;35357;51.722;0.500;2023-09-12T16:28:41;5;4;
49462;PMS5003;35357;51.722;0.500;2023-09-12T16:31:08;3;3;
49462;PMS5003;35357;51.722;0.500;2023-09-12T16:33:34;4;4;
49462;PMS5003;35357;51.722;0.500;2023-09-12T16:36:01;3;3;
49462;PMS5003;35357;51.722;0.500;2023-09-12T16:38:28;5;5;
49462;PMS5003;35357;51.722;0.500;2023-09-12T16:40:55;4;4;
49462;PMS5003;35357;51.722;0.500;2023-09-12T16:43:22;6;5;
49462;PMS5003;35357;51.722;0.500;2023-09-12T16:45:49;5;5;
49462;PMS5003;35357;51.722;0.500;2023-09-12T16:48:16;5;5;
49462;PMS5003;35357;51.722;0.500;2023-09-12T16:50:44;4;4;
49462;PMS5003;35357;51.722;0.500;2023-09-12T16:53:11;5;5;